createdAt,value
2022-11-24T00:01:15.704Z,0.43
2022-11-24T00:03:44.274Z,0.40
2022-11-24T00:06:16.248Z,0.10
2022-11-24T00:08:46.777Z,0.45
2022-11-24T00:11:16.809Z,0.13
2022-11-24T00:13:45.226Z,0.08
2022-11-24T00:16:14.560Z,0.31
2022-11-24T00:18:45.126Z,0.37
2022-11-24T00:21:15.249Z,0.42
2022-11-24T00:23:43.636Z,0.28
2022-11-24T00:26:14.034Z,0.42
2022-11-24T00:28:42.155Z,0.45
2022-11-24T00:31:18.140Z,0.44
2022-11-24T00:33:46.951Z,0.40
2022-11-24T00:36:17.694Z,0.45
2022-11-24T00:38:46.430Z,0.47
2022-11-24T00:41:14.957Z,0.37
2022-11-24T00:43:42.971Z,0.39
2022-11-24T00:46:11.187Z,0.46
2022-11-24T00:48:39.436Z,0.57
2022-11-24T00:51:09.753Z,0.39
2022-11-24T00:53:39.345Z,0.43
2022-11-24T00:56:08.484Z,0.38
2022-11-24T00:58:36.937Z,0.38
2022-11-24T01:01:08.284Z,0.33
2022-11-24T01:03:36.563Z,0.43
2022-11-24T01:06:05.666Z,0.07
2022-11-24T01:08:33.776Z,0.20
2022-11-24T01:11:11.256Z,0.27
2022-11-24T01:13:39.728Z,0.57
2022-11-24T01:16:08.566Z,0.39
2022-11-24T01:18:36.608Z,0.44
2022-11-24T01:21:10.046Z,0.59
2022-11-24T01:23:38.800Z,0.02
2022-11-24T01:26:07.413Z,0.16
2022-11-24T01:28:38.577Z,0.30
2022-11-24T01:31:10.774Z,0.53
2022-11-24T01:33:39.516Z,0.35
2022-11-24T01:36:08.041Z,-0.03
2022-11-24T01:38:36.278Z,0.30
2022-11-24T01:41:06.470Z,0.12
2022-11-24T01:43:36.072Z,-0.18
2022-11-24T01:46:14.112Z,-0.09
2022-11-24T01:48:45.866Z,-0.17
2022-11-24T01:51:18.137Z,-0.29
2022-11-24T01:53:53.229Z,0.07
2022-11-24T01:56:21.724Z,0.11
2022-11-24T01:58:53.365Z,0.06
2022-11-24T02:01:21.744Z,0.20
2022-11-24T02:03:51.570Z,0.04
2022-11-24T02:06:23.344Z,0.31
2022-11-24T02:08:58.081Z,-0.41
2022-11-24T02:11:29.770Z,-0.09
2022-11-24T02:13:59.345Z,-0.13
2022-11-24T02:16:28.253Z,-0.05
2022-11-24T02:18:56.323Z,-0.24
2022-11-24T02:21:24.353Z,-0.08
2022-11-24T02:24:00.834Z,-0.39
2022-11-24T02:26:38.060Z,0.09
2022-11-24T02:29:06.025Z,-0.38
2022-11-24T02:31:34.389Z,-0.12
2022-11-24T02:34:02.528Z,-0.11
2022-11-24T02:36:30.677Z,-0.02
2022-11-24T02:38:58.713Z,0.04
2022-11-24T02:41:29.018Z,-0.12
2022-11-24T02:44:01.077Z,-0.58
2022-11-24T02:46:29.048Z,-0.03
2022-11-24T02:48:57.392Z,0.04
2022-11-24T02:51:25.446Z,0.07
2022-11-24T02:53:53.365Z,0.28
2022-11-24T02:56:21.441Z,0.23
2022-11-24T02:58:49.559Z,-0.20
2022-11-24T03:01:19.121Z,0.15
2022-11-24T03:03:47.475Z,0.43
2022-11-24T03:06:15.720Z,0.42
2022-11-24T03:08:44.142Z,0.37
2022-11-24T03:11:12.298Z,0.32
2022-11-24T03:13:40.381Z,0.34
2022-11-24T03:16:10.792Z,0.03
2022-11-24T03:18:40.044Z,0.25
2022-11-24T03:21:08.249Z,0.43
2022-11-24T03:23:36.230Z,0.49
2022-11-24T03:26:10.921Z,0.67
2022-11-24T03:28:39.136Z,0.37
2022-11-24T03:31:07.447Z,0.47
2022-11-24T03:33:35.737Z,0.59
2022-11-24T03:36:06.629Z,0.52
2022-11-24T03:38:34.761Z,0.47
2022-11-24T03:41:02.880Z,0.45
2022-11-24T03:43:31.013Z,0.40
2022-11-24T03:45:58.986Z,0.38
2022-11-24T03:48:27.248Z,-0.10
2022-11-24T03:50:57.186Z,-0.01
2022-11-24T03:53:28.795Z,0.19
2022-11-24T03:55:57.225Z,0.00
2022-11-24T03:58:25.654Z,-0.10
2022-11-24T04:00:55.053Z,0.01
2022-11-24T04:03:23.637Z,0.05
2022-11-24T04:05:51.931Z,0.09
2022-11-24T04:08:20.636Z,0.01
2022-11-24T04:10:52.958Z,0.10
2022-11-24T04:13:21.679Z,-0.02
2022-11-24T04:15:49.735Z,0.21
2022-11-24T04:18:17.790Z,0.19
2022-11-24T04:20:46.594Z,0.36
2022-11-24T04:23:14.708Z,0.18
2022-11-24T04:25:43.743Z,0.16
2022-11-24T04:28:13.272Z,0.06
2022-11-24T04:30:44.733Z,0.12
2022-11-24T04:33:14.001Z,-0.36
2022-11-24T04:35:42.099Z,-0.09
2022-11-24T04:38:10.127Z,0.49
2022-11-24T04:40:38.692Z,0.43
2022-11-24T04:43:06.782Z,0.05
2022-11-24T04:45:36.206Z,0.41
2022-11-24T04:48:04.449Z,0.39
2022-11-24T04:50:32.718Z,0.43
2022-11-24T04:53:00.656Z,0.28
2022-11-24T04:55:28.769Z,0.20
2022-11-24T04:57:56.997Z,0.20
2022-11-24T05:00:25.085Z,0.42
2022-11-24T05:02:54.630Z,0.49
2022-11-24T05:05:22.593Z,0.40
2022-11-24T05:07:50.497Z,0.36
2022-11-24T05:10:37.369Z,0.39
2022-11-24T05:13:06.764Z,0.45
2022-11-24T05:15:35.207Z,0.17
2022-11-24T05:18:07.203Z,0.34
2022-11-24T05:20:35.520Z,0.02
2022-11-24T05:23:04.958Z,0.08
2022-11-24T05:25:33.614Z,0.18
2022-11-24T05:28:02.515Z,0.24
2022-11-24T05:30:31.326Z,0.30
2022-11-24T05:32:59.418Z,0.64
2022-11-24T05:35:29.052Z,0.34
2022-11-24T05:37:58.962Z,0.34
2022-11-24T05:40:27.157Z,0.45
2022-11-24T05:42:55.198Z,0.36
2022-11-24T05:45:23.799Z,0.36
2022-11-24T05:47:53.316Z,0.39
2022-11-24T05:50:23.861Z,0.45
2022-11-24T05:52:53.360Z,0.48
2022-11-24T05:55:21.554Z,0.23
2022-11-24T05:57:49.548Z,0.48
2022-11-24T06:00:20.183Z,0.43
2022-11-24T06:02:48.608Z,0.51
2022-11-24T06:05:17.788Z,0.60
2022-11-24T06:07:46.277Z,0.56
2022-11-24T06:10:17.254Z,0.65
2022-11-24T06:12:45.578Z,0.50
2022-11-24T06:15:13.980Z,0.47
2022-11-24T06:17:41.954Z,0.56
2022-11-24T06:20:11.975Z,0.49
2022-11-24T06:22:39.801Z,0.52
2022-11-24T06:25:09.684Z,0.52
2022-11-24T06:27:39.054Z,0.50
2022-11-24T06:30:07.950Z,0.33
2022-11-24T06:32:36.057Z,0.57
2022-11-24T06:35:04.020Z,0.48
2022-11-24T06:37:31.978Z,0.52
2022-11-24T06:40:00.005Z,0.46
2022-11-24T06:42:27.974Z,0.48
2022-11-24T06:44:57.218Z,0.60
2022-11-24T06:47:25.178Z,0.62
2022-11-24T06:49:53.670Z,0.51
2022-11-24T06:52:21.585Z,0.63
2022-11-24T06:54:49.530Z,0.45
2022-11-24T06:57:17.459Z,0.60
2022-11-24T06:59:45.378Z,0.73
2022-11-24T07:02:14.791Z,0.34
2022-11-24T07:04:42.683Z,0.70
2022-11-24T07:07:10.547Z,0.66
2022-11-24T07:09:38.431Z,0.69
2022-11-24T07:12:06.972Z,0.71
2022-11-24T07:14:35.054Z,0.93
2022-11-24T07:17:04.876Z,0.74
2022-11-24T07:19:34.357Z,0.71
2022-11-24T07:22:02.172Z,0.86
2022-11-24T07:24:30.321Z,0.72
2022-11-24T07:26:58.564Z,0.72
2022-11-24T07:29:26.462Z,0.85
2022-11-24T07:31:54.455Z,0.77
2022-11-24T07:34:22.608Z,0.94
2022-11-24T07:36:51.799Z,0.91
2022-11-24T07:39:19.861Z,1.02
2022-11-24T07:41:47.905Z,1.19
2022-11-24T07:44:15.742Z,1.05
2022-11-24T07:46:43.836Z,0.86
2022-11-24T07:49:11.814Z,1.04
2022-11-24T07:51:39.697Z,1.16
2022-11-24T07:54:09.304Z,1.20
2022-11-24T07:56:37.301Z,1.29
2022-11-24T07:59:05.668Z,1.14
2022-11-24T08:01:34.049Z,1.22
2022-11-24T08:04:02.559Z,1.42
2022-11-24T08:06:38.748Z,1.56
2022-11-24T08:09:11.524Z,1.46
2022-11-24T08:11:39.377Z,1.59
2022-11-24T08:14:07.296Z,1.58
2022-11-24T08:16:35.356Z,1.66
2022-11-24T08:19:03.347Z,1.40
2022-11-24T08:21:32.410Z,1.82
2022-11-24T08:24:00.677Z,1.79
2022-11-24T08:26:30.084Z,1.73
2022-11-24T08:28:59.798Z,1.74
2022-11-24T08:31:33.808Z,1.73
2022-11-24T08:34:03.770Z,1.94
2022-11-24T08:36:31.862Z,2.00
2022-11-24T08:39:01.527Z,1.99
2022-11-24T08:41:31.329Z,2.09
2022-11-24T08:43:59.729Z,1.78
2022-11-24T08:46:27.738Z,2.15
2022-11-24T08:48:56.154Z,2.06
2022-11-24T08:51:26.161Z,2.32
2022-11-24T08:53:57.001Z,2.41
2022-11-24T08:56:25.707Z,2.28
2022-11-24T08:58:55.341Z,1.84
2022-11-24T09:01:24.053Z,1.99
2022-11-24T09:03:52.578Z,2.08
2022-11-24T09:06:23.976Z,2.12
2022-11-24T09:08:52.461Z,2.08
2022-11-24T09:11:20.919Z,2.22
2022-11-24T09:13:48.989Z,2.11
2022-11-24T09:16:21.515Z,2.00
2022-11-24T09:18:55.112Z,1.99
2022-11-24T09:21:27.259Z,1.70
2022-11-24T09:23:56.299Z,1.88
2022-11-24T09:26:25.900Z,1.66
2022-11-24T09:28:56.555Z,1.81
2022-11-24T09:31:28.611Z,1.94
2022-11-24T09:33:56.984Z,2.00
2022-11-24T09:36:25.634Z,2.02
2022-11-24T09:38:54.035Z,1.94
2022-11-24T09:41:41.568Z,1.84
2022-11-24T09:44:19.936Z,2.00
2022-11-24T09:47:02.449Z,2.05
2022-11-24T09:49:36.052Z,2.14
2022-11-24T09:52:11.030Z,2.19
2022-11-24T09:54:46.284Z,2.22
2022-11-24T09:57:17.088Z,2.22
2022-11-24T09:59:44.997Z,2.30
2022-11-24T10:02:14.990Z,1.92
2022-11-24T10:04:44.921Z,1.98
2022-11-24T10:07:23.293Z,2.11
2022-11-24T10:10:01.247Z,2.15
2022-11-24T10:12:42.252Z,2.06
2022-11-24T10:15:24.646Z,2.11
2022-11-24T10:18:35.028Z,2.19
2022-11-24T10:21:35.956Z,2.29
2022-11-24T10:24:26.060Z,2.30
2022-11-24T10:27:01.933Z,2.30
2022-11-24T10:29:34.861Z,2.13
2022-11-24T10:32:12.052Z,2.22
2022-11-24T10:34:44.828Z,2.23
2022-11-24T10:37:19.498Z,2.16
2022-11-24T10:40:00.301Z,2.16
2022-11-24T10:42:30.187Z,2.19
2022-11-24T10:45:02.535Z,1.76
2022-11-24T10:47:31.519Z,2.19
2022-11-24T10:50:03.895Z,1.89
2022-11-24T10:52:38.061Z,2.14
2022-11-24T10:55:07.462Z,2.19
2022-11-24T10:57:37.434Z,2.24
2022-11-24T11:00:34.484Z,2.21
2022-11-24T11:03:26.691Z,2.36
2022-11-24T11:05:58.023Z,2.27
2022-11-24T11:08:28.927Z,2.27
2022-11-24T11:11:16.060Z,2.33
2022-11-24T11:14:01.648Z,2.36
2022-11-24T11:16:38.205Z,2.35
2022-11-24T11:19:48.015Z,2.37
2022-11-24T11:22:25.451Z,2.24
2022-11-24T11:25:05.984Z,1.85
2022-11-24T11:27:33.969Z,2.28
2022-11-24T11:36:12.531Z,2.25
2022-11-24T11:38:42.859Z,2.27
2022-11-24T11:41:20.499Z,2.24
2022-11-24T11:43:53.850Z,2.24
2022-11-24T11:46:22.533Z,2.40
2022-11-24T11:48:50.578Z,2.16
2022-11-24T11:54:38.097Z,2.18
2022-11-24T11:57:12.406Z,2.05
2022-11-24T12:00:26.624Z,1.86
2022-11-24T12:03:14.994Z,2.07
2022-11-24T12:05:51.922Z,1.91
2022-11-24T12:08:55.975Z,2.10
2022-11-24T12:11:33.229Z,2.29
2022-11-24T12:14:26.071Z,2.21
2022-11-24T12:17:03.666Z,2.21
2022-11-24T12:20:02.340Z,2.23
2022-11-24T12:22:41.971Z,2.32
2022-11-24T12:25:24.061Z,2.15
2022-11-24T12:28:03.926Z,2.21
2022-11-24T12:30:42.444Z,2.11
2022-11-24T12:33:26.342Z,1.80
2022-11-24T12:36:03.752Z,2.01
2022-11-24T12:38:51.796Z,2.20
2022-11-24T12:41:41.789Z,2.17
2022-11-24T12:44:31.894Z,2.19
2022-11-24T12:47:10.977Z,2.03
2022-11-24T12:49:48.597Z,1.98
2022-11-24T12:52:27.322Z,2.09
2022-11-24T12:54:57.140Z,2.05
2022-11-24T12:57:31.635Z,2.00
2022-11-24T13:00:08.332Z,1.88
2022-11-24T13:02:51.829Z,1.83
2022-11-24T13:05:25.802Z,1.81
2022-11-24T13:07:58.852Z,1.65
2022-11-24T13:13:27.383Z,1.89
2022-11-24T13:19:10.193Z,1.78
2022-11-24T13:22:01.169Z,1.71
2022-11-24T13:24:31.871Z,1.81
2022-11-24T13:27:42.649Z,1.72
2022-11-24T13:30:28.992Z,1.57
2022-11-24T13:33:02.949Z,1.48
2022-11-24T13:35:30.918Z,1.47
2022-11-24T13:37:58.909Z,1.74
2022-11-24T13:40:45.832Z,1.61
2022-11-24T13:43:23.470Z,1.68
2022-11-24T13:45:55.113Z,1.67
2022-11-24T13:48:46.795Z,1.69
2022-11-24T13:51:23.499Z,1.66
2022-11-24T13:53:51.801Z,1.67
2022-11-24T13:56:24.675Z,1.69
2022-11-24T13:58:53.440Z,1.47
2022-11-24T14:01:21.744Z,1.60
2022-11-24T14:04:29.487Z,1.55
2022-11-24T14:06:54.641Z,1.40
2022-11-24T14:09:29.918Z,1.57
2022-11-24T14:12:07.393Z,1.50
2022-11-24T14:14:35.502Z,1.61
2022-11-24T14:17:14.578Z,1.60
2022-11-24T14:19:42.828Z,1.57
2022-11-24T14:22:16.040Z,1.61
2022-11-24T14:24:45.477Z,1.44
2022-11-24T14:27:15.511Z,1.49
2022-11-24T14:29:54.441Z,1.43
2022-11-24T14:32:22.956Z,1.49
2022-11-24T14:34:52.139Z,1.53
2022-11-24T14:37:21.491Z,1.47
2022-11-24T14:39:49.230Z,1.52
2022-11-24T14:42:21.977Z,1.46
2022-11-24T14:44:51.857Z,1.45
2022-11-24T14:47:27.110Z,1.47
2022-11-24T14:49:59.099Z,1.44
2022-11-24T14:52:28.164Z,1.48
2022-11-24T14:54:59.007Z,1.43
2022-11-24T14:57:36.066Z,1.43
2022-11-24T15:00:18.133Z,1.38
2022-11-24T15:02:48.569Z,1.38
2022-11-24T15:05:16.337Z,1.52
2022-11-24T15:07:46.440Z,1.48
2022-11-24T15:10:22.207Z,1.35
2022-11-24T15:12:52.121Z,1.45
2022-11-24T15:15:21.360Z,1.28
2022-11-24T15:17:50.534Z,1.31
2022-11-24T15:20:21.629Z,1.31
2022-11-24T15:22:52.541Z,1.47
2022-11-24T15:25:27.499Z,1.34
2022-11-24T15:27:55.485Z,1.32
2022-11-24T15:30:23.165Z,1.42
2022-11-24T15:32:51.946Z,1.42
2022-11-24T15:35:19.721Z,1.44
2022-11-24T15:37:47.303Z,1.35
2022-11-24T15:40:16.616Z,1.39
2022-11-24T15:42:47.215Z,1.30
2022-11-24T15:45:14.810Z,1.19
2022-11-24T15:47:42.450Z,1.39
2022-11-24T15:50:10.626Z,1.36
2022-11-24T15:52:38.828Z,1.30
2022-11-24T15:55:07.190Z,1.19
2022-11-24T15:57:36.272Z,1.23
2022-11-24T16:00:04.267Z,1.12
2022-11-24T16:02:32.023Z,1.11
2022-11-24T16:04:59.831Z,1.18
2022-11-24T16:07:27.503Z,1.35
2022-11-24T16:09:55.219Z,1.26
2022-11-24T16:12:24.961Z,1.20
2022-11-24T16:14:54.002Z,1.24
2022-11-24T16:17:21.677Z,1.29
2022-11-24T16:19:59.791Z,1.16
2022-11-24T16:22:28.142Z,1.09
2022-11-24T16:24:55.821Z,0.88
2022-11-24T16:27:23.418Z,0.90
2022-11-24T16:29:51.140Z,0.88
2022-11-24T16:32:20.229Z,0.78
2022-11-24T16:34:47.854Z,0.94
2022-11-24T16:37:15.544Z,0.93
2022-11-24T16:39:49.640Z,0.90
2022-11-24T16:42:17.977Z,1.21
2022-11-24T16:44:45.697Z,0.78
2022-11-24T16:47:13.759Z,0.87
2022-11-24T16:49:42.913Z,0.77
2022-11-24T16:52:10.597Z,0.84
2022-11-24T16:54:38.249Z,0.81
2022-11-24T16:57:10.332Z,0.74
2022-11-24T16:59:43.406Z,0.87
2022-11-24T17:02:12.362Z,0.82
2022-11-24T17:04:40.042Z,0.90
2022-11-24T17:07:09.237Z,0.70
2022-11-24T17:09:40.561Z,0.60
2022-11-24T17:12:08.557Z,0.53
2022-11-24T17:14:37.179Z,0.74
2022-11-24T17:17:05.145Z,0.76
2022-11-24T17:19:33.075Z,0.81
2022-11-24T17:22:00.814Z,0.94
2022-11-24T17:24:29.905Z,0.78
2022-11-24T17:26:57.542Z,0.59
2022-11-24T17:29:25.925Z,0.69
2022-11-24T17:31:53.749Z,0.78
2022-11-24T17:34:21.461Z,0.59
2022-11-24T17:36:49.152Z,0.56
2022-11-24T17:39:20.289Z,0.66
2022-11-24T17:44:55.799Z,0.82
2022-11-24T17:47:23.421Z,0.76
2022-11-24T17:49:51.028Z,0.73
2022-11-24T17:52:19.082Z,0.70
2022-11-24T17:54:47.085Z,0.68
2022-11-24T17:57:14.771Z,0.64
2022-11-24T17:59:42.633Z,0.74
2022-11-24T18:04:12.742Z,0.91
2022-11-24T18:06:40.926Z,0.79
2022-11-24T18:09:08.757Z,0.75
2022-11-24T18:11:36.701Z,0.68
2022-11-24T18:14:05.964Z,0.34
2022-11-24T18:16:35.560Z,0.84
2022-11-24T18:19:10.763Z,0.67
2022-11-24T18:21:41.825Z,0.75
2022-11-24T18:24:11.128Z,0.81
2022-11-24T18:26:39.471Z,0.84
2022-11-24T18:29:07.923Z,0.75
2022-11-24T18:31:36.617Z,0.36
2022-11-24T18:34:06.128Z,0.82
2022-11-24T18:36:34.601Z,0.64
2022-11-24T18:39:04.917Z,0.65
2022-11-24T18:41:33.362Z,0.54
2022-11-24T18:44:02.375Z,0.50
2022-11-24T18:46:30.471Z,0.22
2022-11-24T18:48:58.428Z,0.59
2022-11-24T18:51:27.154Z,0.67
2022-11-24T18:53:58.151Z,0.74
2022-11-24T18:56:28.008Z,0.69
2022-11-24T18:58:57.374Z,0.66
2022-11-24T19:01:26.739Z,0.13
2022-11-24T19:03:56.849Z,0.45
2022-11-24T19:06:29.053Z,0.28
2022-11-24T19:08:57.293Z,0.73
2022-11-24T19:11:28.545Z,0.52
2022-11-24T19:13:57.647Z,0.74
2022-11-24T19:16:26.241Z,0.63
2022-11-24T19:19:00.167Z,0.31
2022-11-24T19:21:28.469Z,0.65
2022-11-24T19:24:01.302Z,0.37
2022-11-24T19:26:35.026Z,0.30
2022-11-24T19:29:03.565Z,0.57
2022-11-24T19:31:31.621Z,0.21
2022-11-24T19:34:00.165Z,0.62
2022-11-24T19:36:28.598Z,0.48
2022-11-24T19:38:58.077Z,0.62
2022-11-24T19:41:28.207Z,0.50
2022-11-24T19:43:58.633Z,0.52
2022-11-24T19:46:27.607Z,0.39
2022-11-24T19:48:57.421Z,0.40
2022-11-24T19:51:27.310Z,-0.12
2022-11-24T19:53:55.525Z,0.54
2022-11-24T19:56:25.543Z,0.57
2022-11-24T19:58:55.177Z,0.56
2022-11-24T20:01:27.276Z,0.37
2022-11-24T20:03:58.866Z,0.26
2022-11-24T20:06:28.031Z,0.32
2022-11-24T20:08:56.561Z,0.08
2022-11-24T20:11:24.457Z,0.28
2022-11-24T20:13:52.582Z,0.65
2022-11-24T20:16:26.367Z,0.58
2022-11-24T20:19:00.702Z,0.65
2022-11-24T20:21:31.322Z,0.49
2022-11-24T20:24:01.375Z,0.32
2022-11-24T20:26:31.906Z,0.20
2022-11-24T20:29:00.621Z,0.22
2022-11-24T20:31:30.340Z,-0.09
2022-11-24T20:34:00.715Z,0.43
2022-11-24T20:36:30.159Z,0.33
2022-11-24T20:39:00.182Z,0.23
2022-11-24T20:41:31.152Z,0.36
2022-11-24T20:44:01.109Z,0.40
2022-11-24T20:46:30.952Z,0.47
2022-11-24T20:49:03.596Z,0.59
2022-11-24T20:51:33.911Z,0.09
2022-11-24T20:54:03.361Z,0.22
2022-11-24T20:56:33.018Z,0.40
2022-11-24T20:59:01.405Z,0.25
2022-11-24T21:01:30.768Z,0.22
2022-11-24T21:04:01.054Z,0.30
2022-11-24T21:06:30.702Z,0.10
2022-11-24T21:09:03.402Z,0.22
2022-11-24T21:11:32.881Z,0.36
2022-11-24T21:14:01.255Z,0.20
2022-11-24T21:16:31.778Z,0.39
2022-11-24T21:19:04.773Z,0.37
2022-11-24T21:21:35.134Z,0.41
2022-11-24T21:24:03.824Z,0.40
2022-11-24T21:26:32.108Z,0.22
2022-11-24T21:28:59.954Z,0.25
2022-11-24T21:31:27.994Z,0.20
2022-11-24T21:33:56.535Z,0.35
2022-11-24T21:36:27.366Z,0.11
2022-11-24T21:38:56.773Z,0.26
2022-11-24T21:41:26.549Z,0.43
2022-11-24T21:43:55.841Z,0.40
2022-11-24T21:46:24.111Z,0.37
2022-11-24T21:48:52.038Z,0.15
2022-11-24T21:51:21.787Z,-0.08
2022-11-24T21:53:51.122Z,0.17
2022-11-24T21:56:20.931Z,0.10
2022-11-24T21:58:50.145Z,0.09
2022-11-24T22:01:19.977Z,0.35
2022-11-24T22:03:48.002Z,-0.08
2022-11-24T22:06:17.719Z,-0.23
2022-11-24T22:08:46.204Z,-0.49
2022-11-24T22:11:17.086Z,-0.41
2022-11-24T22:13:45.575Z,-0.50
2022-11-24T22:16:19.106Z,-0.59
2022-11-24T22:18:47.181Z,-0.68
2022-11-24T22:21:16.676Z,-0.68
2022-11-24T22:23:45.309Z,-0.11
2022-11-24T22:26:17.396Z,-0.37
2022-11-24T22:28:46.847Z,-0.28
2022-11-24T22:31:16.937Z,-0.37
2022-11-24T22:33:45.477Z,-0.41
2022-11-24T22:36:14.410Z,-0.18
2022-11-24T22:38:43.704Z,-0.38
2022-11-24T22:41:13.958Z,-0.53
2022-11-24T22:43:44.781Z,-0.36
2022-11-24T22:46:14.303Z,-0.36
2022-11-24T22:48:42.884Z,-0.53
2022-11-24T22:51:13.076Z,-0.41
2022-11-24T22:53:41.737Z,-0.23
2022-11-24T22:56:12.253Z,-0.38
2022-11-24T22:58:40.780Z,-0.02
2022-11-24T23:01:12.599Z,-0.25
2022-11-24T23:03:41.961Z,-0.43
2022-11-24T23:06:14.764Z,0.09
2022-11-24T23:08:43.338Z,-0.14
2022-11-24T23:11:13.757Z,-0.13
2022-11-24T23:13:41.714Z,-0.02
2022-11-24T23:16:13.753Z,-0.15
2022-11-24T23:18:42.136Z,-0.01
2022-11-24T23:21:13.450Z,0.06
2022-11-24T23:23:41.971Z,-0.09
2022-11-24T23:26:13.057Z,0.06
2022-11-24T23:28:41.299Z,-0.01
2022-11-24T23:31:12.483Z,0.04
2022-11-24T23:33:41.263Z,0.07
2022-11-24T23:36:11.562Z,0.15
2022-11-24T23:38:40.185Z,0.12
2022-11-24T23:41:10.846Z,-0.48
2022-11-24T23:43:40.570Z,-0.12
2022-11-24T23:46:11.996Z,-0.25
2022-11-24T23:48:40.649Z,-0.21
2022-11-24T23:51:11.282Z,-0.84
2022-11-24T23:53:39.802Z,-0.78
2022-11-24T23:56:08.531Z,-0.69
2022-11-24T23:58:36.363Z,-0.95
